Time;durP1;ratioP1;P1;durP2;ratioP2;P2;SDS_P1;SDS_P2;PMS_P1;PMS_P2;Temp;Humidity;BMP_temperature;BMP_pressure;BME280_temperature;BME280_humidity;BME280_pressure;Samples;Min_cycle;Max_cycle;Signal;HPM_P1;HPM_P2
2022/12/02 00:00:47;;;;;;;31.90;20.27;;;;;;;;;;5023712;28;20451;-67
2022/12/02 00:03:15;;;;;;;29.20;18.20;;;;;;;;;;5025151;28;20658;-67
2022/12/02 00:05:41;;;;;;;28.17;18.50;;;;;;;;;;5021992;28;20546;-67
2022/12/02 00:08:15;;;;;;;31.00;19.60;;;;;;;;;;5020109;28;20434;-67
2022/12/02 00:10:42;;;;;;;31.00;19.27;;;;;;;;;;5020562;28;20287;-67
2022/12/02 00:13:27;;;;;;;30.17;19.93;;;;;;;;;;5005141;28;20829;-67
2022/12/02 00:15:57;;;;;;;32.83;19.37;;;;;;;;;;5003282;28;20848;-67
2022/12/02 00:18:22;;;;;;;31.30;20.40;;;;;;;;;;5022886;28;20934;-67
2022/12/02 00:20:48;;;;;;;32.50;19.83;;;;;;;;;;5000682;28;20462;-68
2022/12/02 00:23:13;;;;;;;30.30;19.13;;;;;;;;;;5009214;28;20181;-67
2022/12/02 00:25:39;;;;;;;34.60;20.63;;;;;;;;;;5007744;28;20203;-67
2022/12/02 00:28:05;;;;;;;37.47;20.93;;;;;;;;;;5024838;28;20251;-67
2022/12/02 00:30:30;;;;;;;36.30;20.60;;;;;;;;;;5003075;28;20463;-67
2022/12/02 00:32:55;;;;;;;33.10;21.40;;;;;;;;;;5022100;28;20386;-67
2022/12/02 00:35:22;;;;;;;38.67;20.80;;;;;;;;;;5019995;28;20679;-67
2022/12/02 00:37:47;;;;;;;33.50;20.50;;;;;;;;;;5027313;28;20180;-67
2022/12/02 00:40:13;;;;;;;34.83;21.20;;;;;;;;;;5006238;28;20454;-67
2022/12/02 00:42:40;;;;;;;36.13;21.50;;;;;;;;;;5008035;28;20773;-67
2022/12/02 00:47:55;;;;;;;38.40;22.27;;;;;;;;;;5021120;28;20494;-67
2022/12/02 00:50:20;;;;;;;33.57;21.33;;;;;;;;;;5028101;28;20525;-67
2022/12/02 00:52:46;;;;;;;34.40;21.20;;;;;;;;;;5071880;23;20180;-69
2022/12/02 00:55:11;;;;;;;35.33;22.57;;;;;;;;;;5035234;28;20251;-69
2022/12/02 00:57:36;;;;;;;34.40;22.70;;;;;;;;;;5023240;28;20835;-69
2022/12/02 01:00:12;;;;;;;37.57;23.20;;;;;;;;;;5040769;28;20180;-69
2022/12/02 01:02:37;;;;;;;32.30;21.03;;;;;;;;;;5037706;28;20183;-69
2022/12/02 01:05:03;;;;;;;33.10;21.43;;;;;;;;;;5034336;28;20435;-68
2022/12/02 01:07:28;;;;;;;31.87;21.80;;;;;;;;;;5015655;28;20672;-68
2022/12/02 01:09:54;;;;;;;34.13;21.00;;;;;;;;;;5014611;28;20192;-68
2022/12/02 01:12:19;;;;;;;34.30;20.60;;;;;;;;;;5011503;28;20195;-68
2022/12/02 01:14:44;;;;;;;34.20;21.83;;;;;;;;;;5029420;28;20269;-68
2022/12/02 01:17:10;;;;;;;32.00;20.77;;;;;;;;;;5035956;28;20194;-68
2022/12/02 01:19:35;;;;;;;28.93;19.87;;;;;;;;;;5029606;28;20229;-68
2022/12/02 01:22:00;;;;;;;32.53;20.50;;;;;;;;;;5018382;28;20274;-68
2022/12/02 01:24:26;;;;;;;34.90;21.00;;;;;;;;;;5028224;28;20203;-68
2022/12/02 01:26:51;;;;;;;34.97;21.97;;;;;;;;;;5035632;28;20186;-68
2022/12/02 01:29:16;;;;;;;29.80;19.37;;;;;;;;;;5032135;28;20179;-68
2022/12/02 01:31:42;;;;;;;28.30;18.83;;;;;;;;;;5031783;28;20202;-68
2022/12/02 01:34:07;;;;;;;27.17;17.90;;;;;;;;;;5032302;28;20216;-69
2022/12/02 01:36:33;;;;;;;32.20;20.73;;;;;;;;;;5013116;28;20176;-68
2022/12/02 01:38:58;;;;;;;30.63;21.57;;;;;;;;;;5035073;28;20254;-68
2022/12/02 01:41:23;;;;;;;30.40;20.30;;;;;;;;;;5033296;28;20306;-68
2022/12/02 01:43:49;;;;;;;32.00;19.80;;;;;;;;;;5028526;28;20219;-68
2022/12/02 01:46:14;;;;;;;32.80;20.10;;;;;;;;;;5029928;28;20330;-69
2022/12/02 01:48:40;;;;;;;31.83;19.80;;;;;;;;;;5009325;28;20184;-69
2022/12/02 01:51:05;;;;;;;33.60;20.00;;;;;;;;;;5028375;28;20659;-67
2022/12/02 01:53:34;;;;;;;32.00;21.33;;;;;;;;;;5035675;28;20227;-67
2022/12/02 01:55:59;;;;;;;25.17;18.50;;;;;;;;;;5032515;28;20353;-67
2022/12/02 01:58:26;;;;;;;33.00;21.40;;;;;;;;;;5031318;28;20434;-67
2022/12/02 02:00:52;;;;;;;29.53;21.70;;;;;;;;;;5016000;28;20184;-67
2022/12/02 02:03:18;;;;;;;29.87;20.57;;;;;;;;;;5030961;28;20512;-67
2022/12/02 02:05:43;;;;;;;30.67;21.80;;;;;;;;;;5030164;28;20447;-67
2022/12/02 02:08:11;;;;;;;30.23;21.03;;;;;;;;;;5029991;28;20646;-69
2022/12/02 02:10:37;;;;;;;30.73;20.77;;;;;;;;;;5014379;28;20209;-67
2022/12/02 02:13:02;;;;;;;31.37;20.47;;;;;;;;;;5030425;28;21151;-67
2022/12/02 02:15:28;;;;;;;32.00;20.00;;;;;;;;;;5031999;28;20212;-68
2022/12/02 02:17:55;;;;;;;29.97;19.20;;;;;;;;;;5035131;28;20207;-68
2022/12/02 02:20:21;;;;;;;28.03;19.03;;;;;;;;;;5027296;28;20177;-67
2022/12/02 02:22:49;;;;;;;31.80;20.13;;;;;;;;;;5031270;28;20431;-67
2022/12/02 02:25:16;;;;;;;30.33;20.23;;;;;;;;;;5033134;28;20488;-67
2022/12/02 02:27:43;;;;;;;30.67;19.43;;;;;;;;;;5027898;28;20442;-68
2022/12/02 02:30:08;;;;;;;29.20;20.33;;;;;;;;;;5022871;28;20434;-67
2022/12/02 02:32:34;;;;;;;26.13;19.10;;;;;;;;;;5010311;28;21006;-67
2022/12/02 02:35:00;;;;;;;28.97;20.57;;;;;;;;;;5018916;28;20257;-69
2022/12/02 02:37:25;;;;;;;30.47;20.07;;;;;;;;;;5031106;28;20429;-67
2022/12/02 02:39:51;;;;;;;29.00;18.40;;;;;;;;;;5038564;28;20207;-67
2022/12/02 02:42:16;;;;;;;28.80;19.47;;;;;;;;;;5036605;28;20183;-67
2022/12/02 02:44:42;;;;;;;34.37;21.33;;;;;;;;;;5037255;28;20716;-67
2022/12/02 02:47:08;;;;;;;31.90;20.17;;;;;;;;;;5020650;28;20188;-67
2022/12/02 02:49:33;;;;;;;29.70;19.03;;;;;;;;;;5038613;28;20427;-67
2022/12/02 02:51:59;;;;;;;31.70;21.10;;;;;;;;;;5040166;28;20643;-67
2022/12/02 02:54:24;;;;;;;30.73;19.30;;;;;;;;;;5039471;28;20686;-67
2022/12/02 02:56:49;;;;;;;30.00;19.17;;;;;;;;;;5021001;28;20697;-67
2022/12/02 02:59:15;;;;;;;31.83;19.57;;;;;;;;;;5022547;28;20683;-67
2022/12/02 03:01:43;;;;;;;31.10;19.87;;;;;;;;;;5025217;28;20180;-67
2022/12/02 03:04:11;;;;;;;29.50;19.50;;;;;;;;;;5039944;28;20208;-67
2022/12/02 03:06:36;;;;;;;33.83;20.53;;;;;;;;;;5036418;28;20541;-67
2022/12/02 03:09:03;;;;;;;28.63;19.53;;;;;;;;;;5014034;28;20518;-67
2022/12/02 03:11:38;;;;;;;31.93;20.90;;;;;;;;;;5030907;28;20438;-69
2022/12/02 03:14:17;;;;;;;30.73;20.40;;;;;;;;;;5029563;28;20488;-67
2022/12/02 03:16:43;;;;;;;36.27;22.00;;;;;;;;;;5027955;28;20434;-70
2022/12/02 03:19:12;;;;;;;36.77;21.30;;;;;;;;;;5019207;28;20446;-67
2022/12/02 03:21:41;;;;;;;27.60;19.77;;;;;;;;;;5018967;28;21056;-67
2022/12/02 03:24:07;;;;;;;31.07;20.63;;;;;;;;;;5022147;28;20488;-67
2022/12/02 03:26:35;;;;;;;32.30;18.50;;;;;;;;;;5035387;28;20429;-68
2022/12/02 03:29:02;;;;;;;31.33;20.67;;;;;;;;;;5019067;28;20590;-67
2022/12/02 03:31:27;;;;;;;32.50;19.07;;;;;;;;;;5029115;28;20465;-68
2022/12/02 03:33:53;;;;;;;28.87;18.80;;;;;;;;;;5023182;28;20843;-67
2022/12/02 03:36:19;;;;;;;33.53;21.33;;;;;;;;;;5022482;28;20219;-67
2022/12/02 03:38:44;;;;;;;34.03;20.80;;;;;;;;;;5022128;28;20179;-67
2022/12/02 03:41:10;;;;;;;34.90;19.67;;;;;;;;;;5035815;28;20196;-67
2022/12/02 03:43:35;;;;;;;36.97;20.50;;;;;;;;;;5020166;28;20195;-68
2022/12/02 03:46:01;;;;;;;36.47;21.13;;;;;;;;;;5019035;28;20176;-67
2022/12/02 03:48:27;;;;;;;37.43;21.03;;;;;;;;;;5024570;28;20180;-67
2022/12/02 03:50:53;;;;;;;35.17;21.53;;;;;;;;;;5021894;28;20198;-67
2022/12/02 03:53:19;;;;;;;37.10;22.30;;;;;;;;;;5017621;28;20470;-67
2022/12/02 03:55:45;;;;;;;34.07;20.87;;;;;;;;;;5038584;28;20466;-67
2022/12/02 03:58:10;;;;;;;31.50;20.00;;;;;;;;;;5021245;28;20417;-67
2022/12/02 04:00:36;;;;;;;40.77;22.20;;;;;;;;;;5021812;28;20651;-67
2022/12/02 04:03:01;;;;;;;35.73;21.90;;;;;;;;;;5017512;28;20195;-67
2022/12/02 04:05:26;;;;;;;36.87;21.40;;;;;;;;;;5033086;28;20266;-67
2022/12/02 04:07:52;;;;;;;41.60;22.83;;;;;;;;;;5020898;28;20180;-67
2022/12/02 04:10:17;;;;;;;38.37;22.03;;;;;;;;;;5037743;28;20267;-67
2022/12/02 04:12:42;;;;;;;41.17;23.33;;;;;;;;;;5037025;28;20275;-67
2022/12/02 04:15:08;;;;;;;41.77;22.63;;;;;;;;;;5023334;28;20219;-67
2022/12/02 04:17:33;;;;;;;39.40;22.00;;;;;;;;;;5037219;28;20223;-67
2022/12/02 04:19:59;;;;;;;40.10;22.23;;;;;;;;;;5035932;28;20184;-68
2022/12/02 04:22:24;;;;;;;41.03;23.37;;;;;;;;;;5020846;28;20202;-67
2022/12/02 04:24:49;;;;;;;37.57;22.50;;;;;;;;;;5021504;28;20200;-67
2022/12/02 04:27:15;;;;;;;40.10;21.70;;;;;;;;;;5036250;28;20822;-67
2022/12/02 04:29:40;;;;;;;36.37;21.80;;;;;;;;;;5031681;28;20176;-67
2022/12/02 04:32:05;;;;;;;42.03;23.20;;;;;;;;;;5017668;28;20239;-67
2022/12/02 04:34:31;;;;;;;37.70;22.50;;;;;;;;;;5031697;28;20238;-67
2022/12/02 04:36:56;;;;;;;42.50;23.00;;;;;;;;;;5026163;28;20920;-67
2022/12/02 04:39:22;;;;;;;39.80;22.20;;;;;;;;;;5038668;28;20283;-67
2022/12/02 04:41:47;;;;;;;42.47;22.73;;;;;;;;;;5034553;28;20288;-67
2022/12/02 04:44:12;;;;;;;38.20;22.97;;;;;;;;;;5021459;28;20204;-67
2022/12/02 04:46:37;;;;;;;37.70;23.73;;;;;;;;;;5040248;28;20172;-67
2022/12/02 04:49:03;;;;;;;40.37;23.13;;;;;;;;;;5021282;28;20173;-67
2022/12/02 04:51:28;;;;;;;42.30;24.43;;;;;;;;;;5023360;28;20181;-67
2022/12/02 04:53:54;;;;;;;41.90;23.07;;;;;;;;;;5035157;28;20222;-67
2022/12/02 04:56:19;;;;;;;38.50;22.43;;;;;;;;;;5038442;28;20203;-67
2022/12/02 04:58:44;;;;;;;37.73;22.70;;;;;;;;;;5037297;28;20251;-68
2022/12/02 05:01:10;;;;;;;43.70;24.40;;;;;;;;;;5022310;28;20181;-67
2022/12/02 05:03:35;;;;;;;39.60;21.87;;;;;;;;;;5037781;28;20258;-68
2022/12/02 05:06:00;;;;;;;40.23;22.23;;;;;;;;;;5036970;28;20206;-67
2022/12/02 05:08:26;;;;;;;40.20;23.37;;;;;;;;;;5035944;28;20226;-67
2022/12/02 05:10:51;;;;;;;40.93;23.30;;;;;;;;;;5032752;28;20523;-67
2022/12/02 05:13:16;;;;;;;36.60;21.67;;;;;;;;;;5006992;28;20681;-67
2022/12/02 05:15:42;;;;;;;39.43;23.20;;;;;;;;;;5034036;28;20208;-67
2022/12/02 05:18:07;;;;;;;39.87;23.60;;;;;;;;;;5030291;28;20187;-67
2022/12/02 05:20:32;;;;;;;41.70;24.73;;;;;;;;;;5014930;28;20187;-67
2022/12/02 05:23:01;;;;;;;44.83;24.53;;;;;;;;;;5030017;28;20218;-67
2022/12/02 05:25:26;;;;;;;44.70;23.40;;;;;;;;;;5033682;28;20238;-68
2022/12/02 05:27:51;;;;;;;41.90;24.13;;;;;;;;;;5030509;28;20435;-68
2022/12/02 05:30:17;;;;;;;40.97;23.53;;;;;;;;;;5029763;28;20625;-67
2022/12/02 05:32:42;;;;;;;45.90;24.60;;;;;;;;;;5028658;28;20184;-68
2022/12/02 05:35:08;;;;;;;37.03;22.50;;;;;;;;;;5014095;28;20204;-67
2022/12/02 05:37:33;;;;;;;40.07;23.47;;;;;;;;;;5012359;28;20779;-67
2022/12/02 05:39:59;;;;;;;41.63;26.20;;;;;;;;;;5016696;28;20194;-68
2022/12/02 05:42:24;;;;;;;44.53;25.47;;;;;;;;;;5014164;28;20542;-68
2022/12/02 05:44:49;;;;;;;44.00;25.50;;;;;;;;;;5030412;28;20214;-68
2022/12/02 05:47:16;;;;;;;42.30;22.90;;;;;;;;;;5017574;28;20681;-68
2022/12/02 05:49:42;;;;;;;45.70;25.40;;;;;;;;;;5012597;28;20194;-69
2022/12/02 05:52:22;;;;;;;45.23;24.60;;;;;;;;;;5019675;28;20933;-68
2022/12/02 05:54:50;;;;;;;43.77;24.13;;;;;;;;;;5014274;28;20996;-70
2022/12/02 05:57:16;;;;;;;42.20;24.20;;;;;;;;;;5035475;28;20476;-68
2022/12/02 05:59:41;;;;;;;41.30;23.90;;;;;;;;;;5035746;28;20968;-68
2022/12/02 06:02:20;;;;;;;46.80;24.50;;;;;;;;;;5030552;28;20180;-68
2022/12/02 06:04:45;;;;;;;48.90;25.40;;;;;;;;;;5039106;28;20693;-69
2022/12/02 06:07:14;;;;;;;49.17;25.90;;;;;;;;;;5021796;28;20451;-69
2022/12/02 06:09:41;;;;;;;48.20;25.83;;;;;;;;;;5033507;28;20564;-69
2022/12/02 06:12:11;;;;;;;49.30;25.63;;;;;;;;;;5022833;28;20423;-69
2022/12/02 06:14:36;;;;;;;43.63;24.20;;;;;;;;;;5036257;28;20473;-69
2022/12/02 06:17:08;;;;;;;43.10;25.57;;;;;;;;;;5015538;28;20431;-69
2022/12/02 06:19:39;;;;;;;53.77;25.23;;;;;;;;;;5014513;28;20284;-69
2022/12/02 06:22:10;;;;;;;46.90;27.10;;;;;;;;;;5036859;28;20414;-69
2022/12/02 06:24:38;;;;;;;38.93;24.30;;;;;;;;;;5018673;28;20473;-69
2022/12/02 06:27:03;;;;;;;45.63;25.47;;;;;;;;;;5030838;28;20542;-68
2022/12/02 06:29:29;;;;;;;50.53;26.10;;;;;;;;;;5037434;28;21014;-68
2022/12/02 06:31:55;;;;;;;47.60;26.07;;;;;;;;;;5039137;28;20184;-69
2022/12/02 06:34:40;;;;;;;46.80;24.50;;;;;;;;;;5025307;28;20212;-69
2022/12/02 06:37:27;;;;;;;41.97;24.20;;;;;;;;;;5040027;28;20511;-68
2022/12/02 06:39:56;;;;;;;42.33;24.50;;;;;;;;;;5039684;28;20457;-69
2022/12/02 06:42:34;;;;;;;43.67;24.83;;;;;;;;;;5036117;28;20462;-69
2022/12/02 06:45:14;;;;;;;46.43;24.47;;;;;;;;;;5034418;28;20834;-69
2022/12/02 06:47:46;;;;;;;44.93;23.80;;;;;;;;;;5021418;28;20507;-69
2022/12/02 06:50:23;;;;;;;45.07;23.20;;;;;;;;;;5021246;28;20419;-69
2022/12/02 06:52:48;;;;;;;37.97;21.27;;;;;;;;;;5035287;28;20441;-69
2022/12/02 06:55:31;;;;;;;40.70;22.77;;;;;;;;;;5065563;23;20477;-68
2022/12/02 06:57:59;;;;;;;44.23;23.90;;;;;;;;;;5038559;28;20177;-68
2022/12/02 07:00:25;;;;;;;47.90;23.43;;;;;;;;;;5039246;28;20442;-68
2022/12/02 07:02:50;;;;;;;41.53;22.20;;;;;;;;;;5036601;28;20441;-68
2022/12/02 07:05:20;;;;;;;44.97;23.57;;;;;;;;;;5037000;28;20187;-68
2022/12/02 07:07:45;;;;;;;46.67;22.83;;;;;;;;;;5037749;28;20191;-68
2022/12/02 07:10:18;;;;;;;40.40;22.47;;;;;;;;;;5038756;28;20786;-68
2022/12/02 07:12:47;;;;;;;41.10;22.90;;;;;;;;;;5037880;28;20187;-68
2022/12/02 07:15:21;;;;;;;41.77;22.73;;;;;;;;;;5033368;28;20494;-68
2022/12/02 07:17:46;;;;;;;48.70;24.50;;;;;;;;;;5034302;28;20438;-68
2022/12/02 07:20:17;;;;;;;40.17;23.13;;;;;;;;;;5014463;28;20447;-68
2022/12/02 07:22:44;;;;;;;34.87;20.27;;;;;;;;;;5018979;28;20262;-68
2022/12/02 07:25:21;;;;;;;36.33;21.20;;;;;;;;;;5038406;28;20843;-67
2022/12/02 07:27:48;;;;;;;36.70;21.53;;;;;;;;;;5037200;28;20513;-68
2022/12/02 07:30:21;;;;;;;33.07;20.60;;;;;;;;;;5039232;28;20513;-68
2022/12/02 07:32:47;;;;;;;35.53;20.30;;;;;;;;;;5023477;28;21236;-68
2022/12/02 07:35:12;;;;;;;37.13;21.33;;;;;;;;;;5040151;28;20462;-68
2022/12/02 07:37:37;;;;;;;34.67;20.73;;;;;;;;;;5021484;28;20176;-67
2022/12/02 07:40:03;;;;;;;40.80;21.07;;;;;;;;;;5035633;28;20203;-68
2022/12/02 07:42:28;;;;;;;34.40;19.93;;;;;;;;;;5019060;28;20547;-68
2022/12/02 07:44:53;;;;;;;38.20;20.60;;;;;;;;;;5036820;28;20219;-68
2022/12/02 07:47:19;;;;;;;34.43;19.10;;;;;;;;;;5018739;28;20219;-68
2022/12/02 07:49:44;;;;;;;37.50;21.67;;;;;;;;;;5036621;28;20565;-68
2022/12/02 07:52:09;;;;;;;38.67;21.63;;;;;;;;;;5022864;28;20180;-68
2022/12/02 07:54:34;;;;;;;43.60;23.87;;;;;;;;;;5038571;28;20300;-68
2022/12/02 07:57:00;;;;;;;37.43;20.90;;;;;;;;;;5021305;28;20202;-68
2022/12/02 07:59:25;;;;;;;41.40;21.60;;;;;;;;;;5032413;28;20287;-68
2022/12/02 08:01:50;;;;;;;41.10;23.10;;;;;;;;;;5034746;28;20176;-68
2022/12/02 08:04:16;;;;;;;41.57;23.23;;;;;;;;;;5029567;28;20191;-68
2022/12/02 08:06:43;;;;;;;41.93;23.13;;;;;;;;;;5028568;28;20177;-68
2022/12/02 08:09:09;;;;;;;39.23;22.53;;;;;;;;;;5015995;28;20200;-68
2022/12/02 08:11:34;;;;;;;40.97;22.67;;;;;;;;;;5028855;28;21005;-68
2022/12/02 08:13:59;;;;;;;41.30;23.77;;;;;;;;;;5035673;28;20188;-68
2022/12/02 08:16:25;;;;;;;40.73;22.53;;;;;;;;;;5030300;28;20206;-68
2022/12/02 08:18:52;;;;;;;39.53;22.20;;;;;;;;;;5031129;28;20241;-68
2022/12/02 08:21:18;;;;;;;40.87;22.90;;;;;;;;;;5029346;28;20172;-68
2022/12/02 08:23:43;;;;;;;42.00;24.00;;;;;;;;;;5027890;28;20862;-68
2022/12/02 08:26:08;;;;;;;41.50;23.13;;;;;;;;;;5032836;28;20188;-68
2022/12/02 08:28:33;;;;;;;45.17;24.10;;;;;;;;;;5016837;28;20271;-68
2022/12/02 08:30:59;;;;;;;40.47;22.10;;;;;;;;;;5035638;28;20184;-68
2022/12/02 08:33:24;;;;;;;37.03;22.23;;;;;;;;;;5033447;28;20721;-68
2022/12/02 08:35:49;;;;;;;44.83;23.37;;;;;;;;;;5016541;28;20218;-68
2022/12/02 08:38:15;;;;;;;39.43;22.73;;;;;;;;;;5027276;28;20550;-68
2022/12/02 08:40:40;;;;;;;40.63;24.23;;;;;;;;;;5033198;28;20202;-68
2022/12/02 08:43:06;;;;;;;37.30;22.50;;;;;;;;;;5032565;28;20773;-68
2022/12/02 08:45:31;;;;;;;39.50;23.33;;;;;;;;;;5016600;28;20254;-68
2022/12/02 08:47:56;;;;;;;39.97;24.00;;;;;;;;;;5020246;28;20581;-68
2022/12/02 08:50:24;;;;;;;40.03;24.00;;;;;;;;;;5028179;28;20734;-68
2022/12/02 08:52:49;;;;;;;39.33;23.27;;;;;;;;;;5019344;28;20211;-68
2022/12/02 08:55:14;;;;;;;37.13;23.83;;;;;;;;;;5030644;28;21195;-68
2022/12/02 08:57:40;;;;;;;40.10;24.73;;;;;;;;;;5032945;28;20572;-68
2022/12/02 09:00:06;;;;;;;40.27;24.27;;;;;;;;;;5031978;28;20192;-68
2022/12/02 09:02:31;;;;;;;34.00;21.30;;;;;;;;;;5030501;28;20264;-69
2022/12/02 09:04:56;;;;;;;42.57;24.07;;;;;;;;;;5018371;28;20449;-68
2022/12/02 09:07:24;;;;;;;43.27;26.30;;;;;;;;;;5029656;28;20181;-68
2022/12/02 09:09:49;;;;;;;38.03;23.70;;;;;;;;;;5033108;28;20207;-68
2022/12/02 09:12:14;;;;;;;36.33;23.70;;;;;;;;;;5031979;28;20430;-68
2022/12/02 09:14:42;;;;;;;39.90;24.47;;;;;;;;;;5031648;28;20994;-68
2022/12/02 09:17:07;;;;;;;39.00;24.00;;;;;;;;;;5019312;28;20580;-68
2022/12/02 09:19:33;;;;;;;35.33;23.73;;;;;;;;;;5029880;28;20450;-68
2022/12/02 09:21:58;;;;;;;44.97;26.30;;;;;;;;;;5027461;28;20866;-68
2022/12/02 09:24:23;;;;;;;40.03;25.00;;;;;;;;;;5015475;28;20172;-68
2022/12/02 09:26:48;;;;;;;37.73;24.73;;;;;;;;;;5034043;28;20179;-68
2022/12/02 09:29:14;;;;;;;41.93;25.30;;;;;;;;;;5017526;28;20218;-68
2022/12/02 09:31:39;;;;;;;39.57;25.47;;;;;;;;;;5035155;28;20179;-68
2022/12/02 09:34:04;;;;;;;37.70;24.20;;;;;;;;;;5013320;28;20241;-68
2022/12/02 09:36:30;;;;;;;38.63;25.80;;;;;;;;;;5018669;28;20235;-68
2022/12/02 09:38:55;;;;;;;40.70;26.07;;;;;;;;;;5030153;28;20667;-68
2022/12/02 09:41:20;;;;;;;40.70;26.47;;;;;;;;;;5032571;28;20238;-68
2022/12/02 09:43:46;;;;;;;35.93;23.87;;;;;;;;;;5032957;28;20672;-68
2022/12/02 09:46:11;;;;;;;36.73;25.07;;;;;;;;;;5031314;28;20215;-68
2022/12/02 09:48:37;;;;;;;36.53;24.50;;;;;;;;;;5031281;28;20184;-68
2022/12/02 09:51:02;;;;;;;37.83;24.20;;;;;;;;;;5018634;28;20283;-68
2022/12/02 09:53:32;;;;;;;39.97;26.27;;;;;;;;;;5034640;28;20635;-68
2022/12/02 09:55:57;;;;;;;35.57;24.80;;;;;;;;;;5033625;28;20278;-68
2022/12/02 09:58:22;;;;;;;35.07;24.60;;;;;;;;;;5037455;28;20434;-68
2022/12/02 10:00:50;;;;;;;35.23;26.17;;;;;;;;;;5034918;28;20665;-68
2022/12/02 10:03:15;;;;;;;42.23;26.80;;;;;;;;;;5017182;28;20191;-68
2022/12/02 10:05:41;;;;;;;39.10;25.30;;;;;;;;;;5028518;28;23472;-68
2022/12/02 10:08:11;;;;;;;36.27;25.63;;;;;;;;;;5028518;28;20438;-68
2022/12/02 10:10:38;;;;;;;36.80;26.40;;;;;;;;;;5041099;28;20227;-68
2022/12/02 10:13:03;;;;;;;36.43;26.50;;;;;;;;;;5022577;28;20437;-68
2022/12/02 10:15:30;;;;;;;40.23;27.67;;;;;;;;;;5024010;28;20471;-68
2022/12/02 10:17:56;;;;;;;41.83;25.90;;;;;;;;;;5021597;28;20909;-68
2022/12/02 10:20:23;;;;;;;36.30;25.73;;;;;;;;;;5040034;28;20439;-68
2022/12/02 10:23:08;;;;;;;34.73;25.17;;;;;;;;;;5033211;28;20199;-68
2022/12/02 10:25:34;;;;;;;33.60;24.60;;;;;;;;;;5024750;28;20434;-68
2022/12/02 10:28:00;;;;;;;34.43;24.50;;;;;;;;;;5021514;28;20444;-68
2022/12/02 10:30:26;;;;;;;37.77;26.40;;;;;;;;;;5040026;28;20769;-68
2022/12/02 10:32:58;;;;;;;39.27;27.40;;;;;;;;;;5039596;28;20195;-68
2022/12/02 10:35:23;;;;;;;35.97;25.73;;;;;;;;;;5041763;28;20204;-68
2022/12/02 10:37:49;;;;;;;32.37;24.60;;;;;;;;;;5041098;28;20992;-68
2022/12/02 10:40:19;;;;;;;32.10;23.53;;;;;;;;;;5042503;28;20200;-68
2022/12/02 10:42:46;;;;;;;32.80;24.47;;;;;;;;;;5040610;28;20175;-68
2022/12/02 10:45:22;;;;;;;35.30;24.70;;;;;;;;;;5040198;28;20857;-68
2022/12/02 10:47:48;;;;;;;37.57;26.50;;;;;;;;;;5040255;28;20445;-68
2022/12/02 10:50:21;;;;;;;38.70;26.40;;;;;;;;;;5037125;28;20515;-68
2022/12/02 10:52:57;;;;;;;32.23;23.50;;;;;;;;;;5038533;28;20429;-68
2022/12/02 10:55:22;;;;;;;34.00;24.53;;;;;;;;;;5041282;28;20461;-68
2022/12/02 10:57:49;;;;;;;32.43;23.03;;;;;;;;;;5022985;28;20425;-68
2022/12/02 11:00:16;;;;;;;33.10;24.23;;;;;;;;;;5021033;28;20227;-68
2022/12/02 11:02:47;;;;;;;32.57;23.33;;;;;;;;;;5024636;28;20521;-68
2022/12/02 11:05:18;;;;;;;35.20;23.87;;;;;;;;;;5039150;28;20770;-68
2022/12/02 11:07:54;;;;;;;37.17;25.50;;;;;;;;;;5037869;28;20493;-68
2022/12/02 11:10:23;;;;;;;35.30;25.90;;;;;;;;;;5034476;28;21526;-67
2022/12/02 11:12:48;;;;;;;31.23;24.57;;;;;;;;;;5019246;28;20886;-68
2022/12/02 11:15:32;;;;;;;33.30;24.70;;;;;;;;;;5030602;28;20468;-67
2022/12/02 11:17:57;;;;;;;32.13;23.80;;;;;;;;;;5021845;28;20276;-68
2022/12/02 11:20:32;;;;;;;33.77;23.97;;;;;;;;;;5022194;28;20546;-68
2022/12/02 11:22:57;;;;;;;30.73;22.03;;;;;;;;;;5041086;28;20199;-68
2022/12/02 11:25:41;;;;;;;29.03;21.40;;;;;;;;;;5038620;28;20469;-68
2022/12/02 11:28:25;;;;;;;30.03;21.80;;;;;;;;;;5040530;28;20187;-68
2022/12/02 11:31:10;;;;;;;28.10;20.83;;;;;;;;;;5029029;28;20500;-68
2022/12/02 11:33:42;;;;;;;27.03;19.23;;;;;;;;;;5041226;28;20775;-68
2022/12/02 11:36:07;;;;;;;30.67;21.23;;;;;;;;;;5041229;28;20583;-68
2022/12/02 11:38:44;;;;;;;26.30;19.63;;;;;;;;;;5022021;28;20497;-68
2022/12/02 11:41:09;;;;;;;27.23;20.03;;;;;;;;;;5038074;28;20184;-68
2022/12/02 11:43:40;;;;;;;26.50;18.80;;;;;;;;;;5040197;28;20431;-68
2022/12/02 11:46:06;;;;;;;26.80;19.77;;;;;;;;;;5039007;28;20573;-68
2022/12/02 11:48:31;;;;;;;28.70;20.00;;;;;;;;;;5037258;28;20434;-68
2022/12/02 11:50:59;;;;;;;28.33;20.03;;;;;;;;;;5021664;28;20210;-68
2022/12/02 11:53:24;;;;;;;28.17;18.70;;;;;;;;;;5041278;28;20711;-68
2022/12/02 11:55:52;;;;;;;25.90;19.30;;;;;;;;;;5037103;28;20478;-68
2022/12/02 11:58:18;;;;;;;22.87;16.70;;;;;;;;;;5023686;28;20211;-68
2022/12/02 12:01:03;;;;;;;26.00;18.00;;;;;;;;;;5021220;28;20862;-68
2022/12/02 12:03:29;;;;;;;30.33;21.37;;;;;;;;;;5021200;28;20585;-68
2022/12/02 12:06:06;;;;;;;36.47;26.20;;;;;;;;;;5028199;28;20426;-69
2022/12/02 12:08:32;;;;;;;35.00;24.37;;;;;;;;;;5021899;28;20207;-68
2022/12/02 12:11:16;;;;;;;28.90;19.20;;;;;;;;;;5038776;28;20925;-68
2022/12/02 12:14:00;;;;;;;26.53;18.40;;;;;;;;;;5037306;28;20672;-68
2022/12/02 12:16:25;;;;;;;26.03;19.33;;;;;;;;;;5027729;28;20565;-68
2022/12/02 12:18:51;;;;;;;30.13;20.47;;;;;;;;;;5016951;28;20502;-68
2022/12/02 12:21:29;;;;;;;30.90;21.03;;;;;;;;;;5036710;28;20213;-68
2022/12/02 12:23:54;;;;;;;32.40;22.47;;;;;;;;;;5022586;28;20492;-69
2022/12/02 12:26:29;;;;;;;28.50;19.87;;;;;;;;;;5031054;28;20427;-68
2022/12/02 12:28:55;;;;;;;33.73;22.90;;;;;;;;;;5020809;28;20204;-68
2022/12/02 12:31:20;;;;;;;28.90;21.27;;;;;;;;;;5036642;28;20433;-69
2022/12/02 12:33:45;;;;;;;31.70;22.83;;;;;;;;;;5020150;28;20179;-68
2022/12/02 12:36:10;;;;;;;28.87;20.50;;;;;;;;;;5034994;28;20238;-68
2022/12/02 12:38:36;;;;;;;30.37;21.13;;;;;;;;;;5022344;28;20205;-68
2022/12/02 12:41:01;;;;;;;30.60;22.07;;;;;;;;;;5038281;28;20172;-68
2022/12/02 12:43:26;;;;;;;34.40;23.60;;;;;;;;;;5037613;28;20283;-69
2022/12/02 12:45:52;;;;;;;28.60;21.20;;;;;;;;;;5035356;28;20180;-68
2022/12/02 12:48:17;;;;;;;32.60;22.80;;;;;;;;;;5011681;28;20190;-68
2022/12/02 12:50:42;;;;;;;30.93;22.00;;;;;;;;;;5028687;28;20196;-69
2022/12/02 12:53:08;;;;;;;31.10;21.40;;;;;;;;;;5029472;28;20187;-68
2022/12/02 12:55:33;;;;;;;31.27;22.40;;;;;;;;;;5015505;28;20204;-69
2022/12/02 12:57:58;;;;;;;34.70;22.80;;;;;;;;;;5032762;28;20558;-69
2022/12/02 13:00:24;;;;;;;30.50;21.93;;;;;;;;;;5037158;28;20196;-68
2022/12/02 13:02:49;;;;;;;31.50;21.80;;;;;;;;;;5039573;28;20603;-68
2022/12/02 13:05:14;;;;;;;30.63;22.27;;;;;;;;;;5034875;28;20212;-71
2022/12/02 13:07:40;;;;;;;35.10;23.07;;;;;;;;;;5034396;28;20238;-68
2022/12/02 13:10:05;;;;;;;31.83;21.63;;;;;;;;;;5027932;28;20702;-68
2022/12/02 13:12:30;;;;;;;31.00;21.27;;;;;;;;;;5037015;28;20184;-68
2022/12/02 13:14:58;;;;;;;33.87;23.43;;;;;;;;;;5035886;28;20557;-68
2022/12/02 13:17:23;;;;;;;33.70;22.53;;;;;;;;;;5029408;28;20176;-68
2022/12/02 13:19:49;;;;;;;35.87;22.57;;;;;;;;;;5035856;28;20874;-68
2022/12/02 13:22:14;;;;;;;35.60;22.57;;;;;;;;;;5031164;28;20811;-68
2022/12/02 13:24:39;;;;;;;33.43;22.50;;;;;;;;;;5037130;28;20302;-68
2022/12/02 13:27:05;;;;;;;31.90;22.37;;;;;;;;;;5037910;28;20215;-68
2022/12/02 13:29:30;;;;;;;33.50;23.37;;;;;;;;;;5036358;28;20713;-71
2022/12/02 13:31:55;;;;;;;31.33;22.83;;;;;;;;;;5037158;28;20208;-70
2022/12/02 13:34:20;;;;;;;33.87;22.60;;;;;;;;;;5036082;28;20636;-71
2022/12/02 13:36:46;;;;;;;33.20;22.53;;;;;;;;;;5036582;28;20183;-71
2022/12/02 13:39:12;;;;;;;43.80;27.67;;;;;;;;;;5035927;28;20191;-71
2022/12/02 13:41:37;;;;;;;36.37;25.33;;;;;;;;;;5018087;28;20195;-71
2022/12/02 13:44:03;;;;;;;36.03;24.17;;;;;;;;;;5023335;28;20761;-70
2022/12/02 13:46:28;;;;;;;34.33;24.20;;;;;;;;;;5039979;28;20192;-71
2022/12/02 13:48:54;;;;;;;35.53;24.40;;;;;;;;;;5022018;28;20226;-69
2022/12/02 13:51:19;;;;;;;34.50;24.23;;;;;;;;;;5037236;28;20184;-68
2022/12/02 13:53:44;;;;;;;39.53;25.50;;;;;;;;;;5019051;28;20216;-68
2022/12/02 13:56:09;;;;;;;34.33;23.70;;;;;;;;;;5017545;28;20593;-68
2022/12/02 13:58:35;;;;;;;36.60;24.73;;;;;;;;;;5034079;28;20235;-68
2022/12/02 14:01:00;;;;;;;36.30;25.47;;;;;;;;;;5008748;28;20394;-68
2022/12/02 14:03:25;;;;;;;33.23;24.00;;;;;;;;;;5034479;28;20172;-68
2022/12/02 14:05:51;;;;;;;36.80;25.20;;;;;;;;;;5028292;28;20184;-68
2022/12/02 14:08:16;;;;;;;39.13;25.90;;;;;;;;;;5037196;28;20184;-68
2022/12/02 14:10:41;;;;;;;39.07;26.43;;;;;;;;;;5019707;28;20199;-68
2022/12/02 14:13:08;;;;;;;33.63;23.67;;;;;;;;;;5035060;28;20194;-68
2022/12/02 14:15:33;;;;;;;38.33;26.20;;;;;;;;;;5028711;28;20215;-68
2022/12/02 14:17:58;;;;;;;37.40;24.03;;;;;;;;;;5035177;28;20426;-68